sensor_id;sensor_type;location;lat;lon;timestamp;P1;durP1;ratioP1;P2;durP2;ratioP2
5813;SDS011;2933;52.302;8.134;2023-02-15T00:02:18;13.20;;;7.30;;
5813;SDS011;2933;52.302;8.134;2023-02-15T00:07:20;16.40;;;7.80;;
5813;SDS011;2933;52.302;8.134;2023-02-15T00:12:22;13.03;;;7.43;;
5813;SDS011;2933;52.302;8.134;2023-02-15T00:17:25;16.13;;;7.60;;
5813;SDS011;2933;52.302;8.134;2023-02-15T00:22:28;13.73;;;7.83;;
5813;SDS011;2933;52.302;8.134;2023-02-15T00:27:29;15.33;;;8.27;;
5813;SDS011;2933;52.302;8.134;2023-02-15T00:32:32;13.83;;;7.90;;
5813;SDS011;2933;52.302;8.134;2023-02-15T00:37:34;13.70;;;7.77;;
5813;SDS011;2933;52.302;8.134;2023-02-15T00:42:36;12.93;;;7.43;;
5813;SDS011;2933;52.302;8.134;2023-02-15T00:47:39;13.17;;;7.90;;
5813;SDS011;2933;52.302;8.134;2023-02-15T00:52:40;12.00;;;7.40;;
5813;SDS011;2933;52.302;8.134;2023-02-15T00:57:42;17.23;;;7.70;;
5813;SDS011;2933;52.302;8.134;2023-02-15T01:02:45;17.67;;;8.40;;
5813;SDS011;2933;52.302;8.134;2023-02-15T01:07:46;19.57;;;8.20;;
5813;SDS011;2933;52.302;8.134;2023-02-15T01:12:49;16.37;;;8.20;;
5813;SDS011;2933;52.302;8.134;2023-02-15T01:17:52;18.23;;;9.50;;
5813;SDS011;2933;52.302;8.134;2023-02-15T01:22:54;12.23;;;7.73;;
5813;SDS011;2933;52.302;8.134;2023-02-15T01:27:59;15.40;;;8.90;;
5813;SDS011;2933;52.302;8.134;2023-02-15T01:33:02;18.40;;;8.33;;
5813;SDS011;2933;52.302;8.134;2023-02-15T01:38:03;14.27;;;7.60;;
5813;SDS011;2933;52.302;8.134;2023-02-15T01:43:07;15.93;;;8.50;;
5813;SDS011;2933;52.302;8.134;2023-02-15T01:48:15;20.27;;;8.57;;
5813;SDS011;2933;52.302;8.134;2023-02-15T01:53:23;15.70;;;8.30;;
5813;SDS011;2933;52.302;8.134;2023-02-15T01:58:28;20.23;;;7.63;;
5813;SDS011;2933;52.302;8.134;2023-02-15T02:03:34;15.13;;;7.87;;
5813;SDS011;2933;52.302;8.134;2023-02-15T02:08:40;14.87;;;8.63;;
5813;SDS011;2933;52.302;8.134;2023-02-15T02:13:43;15.40;;;9.00;;
5813;SDS011;2933;52.302;8.134;2023-02-15T02:18:49;14.10;;;7.60;;
5813;SDS011;2933;52.302;8.134;2023-02-15T02:24:16;18.50;;;9.10;;
5813;SDS011;2933;52.302;8.134;2023-02-15T02:35:16;16.63;;;8.40;;
5813;SDS011;2933;52.302;8.134;2023-02-15T02:40:24;17.17;;;9.10;;
5813;SDS011;2933;52.302;8.134;2023-02-15T02:45:35;15.70;;;9.10;;
5813;SDS011;2933;52.302;8.134;2023-02-15T02:50:46;15.13;;;8.37;;
5813;SDS011;2933;52.302;8.134;2023-02-15T02:55:48;15.53;;;9.40;;
5813;SDS011;2933;52.302;8.134;2023-02-15T03:00:54;16.03;;;8.70;;
5813;SDS011;2933;52.302;8.134;2023-02-15T03:06:01;20.10;;;8.43;;
5813;SDS011;2933;52.302;8.134;2023-02-15T03:11:09;17.30;;;8.97;;
5813;SDS011;2933;52.302;8.134;2023-02-15T03:16:12;22.13;;;10.40;;
5813;SDS011;2933;52.302;8.134;2023-02-15T03:21:32;16.70;;;8.40;;
5813;SDS011;2933;52.302;8.134;2023-02-15T03:26:37;19.27;;;9.60;;
5813;SDS011;2933;52.302;8.134;2023-02-15T03:31:41;17.20;;;9.00;;
5813;SDS011;2933;52.302;8.134;2023-02-15T03:36:49;18.47;;;9.07;;
5813;SDS011;2933;52.302;8.134;2023-02-15T03:41:58;13.73;;;8.30;;
5813;SDS011;2933;52.302;8.134;2023-02-15T03:47:07;17.77;;;9.07;;
5813;SDS011;2933;52.302;8.134;2023-02-15T03:52:15;15.57;;;8.23;;
5813;SDS011;2933;52.302;8.134;2023-02-15T03:57:19;21.50;;;8.73;;
5813;SDS011;2933;52.302;8.134;2023-02-15T04:02:40;14.80;;;8.27;;
5813;SDS011;2933;52.302;8.134;2023-02-15T04:07:54;20.67;;;8.97;;
5813;SDS011;2933;52.302;8.134;2023-02-15T04:12:56;20.40;;;9.07;;
5813;SDS011;2933;52.302;8.134;2023-02-15T04:17:57;14.37;;;8.50;;
5813;SDS011;2933;52.302;8.134;2023-02-15T04:23:00;15.27;;;8.30;;
5813;SDS011;2933;52.302;8.134;2023-02-15T04:28:19;21.67;;;9.13;;
5813;SDS011;2933;52.302;8.134;2023-02-15T04:33:21;16.43;;;8.77;;
5813;SDS011;2933;52.302;8.134;2023-02-15T04:38:24;18.50;;;8.43;;
5813;SDS011;2933;52.302;8.134;2023-02-15T04:43:26;16.67;;;9.03;;
5813;SDS011;2933;52.302;8.134;2023-02-15T04:48:27;16.17;;;8.63;;
5813;SDS011;2933;52.302;8.134;2023-02-15T04:53:30;18.00;;;9.07;;
5813;SDS011;2933;52.302;8.134;2023-02-15T04:58:32;14.90;;;8.90;;
5813;SDS011;2933;52.302;8.134;2023-02-15T05:03:35;18.63;;;9.00;;
5813;SDS011;2933;52.302;8.134;2023-02-15T05:08:38;16.90;;;8.70;;
5813;SDS011;2933;52.302;8.134;2023-02-15T05:13:39;19.73;;;9.97;;
5813;SDS011;2933;52.302;8.134;2023-02-15T05:18:41;14.87;;;8.37;;
5813;SDS011;2933;52.302;8.134;2023-02-15T05:23:44;30.10;;;10.40;;
5813;SDS011;2933;52.302;8.134;2023-02-15T05:28:46;20.20;;;9.50;;
5813;SDS011;2933;52.302;8.134;2023-02-15T05:33:47;15.40;;;8.60;;
5813;SDS011;2933;52.302;8.134;2023-02-15T05:38:50;19.53;;;9.17;;
5813;SDS011;2933;52.302;8.134;2023-02-15T05:43:54;22.53;;;9.30;;
5813;SDS011;2933;52.302;8.134;2023-02-15T05:48:56;20.67;;;9.33;;
5813;SDS011;2933;52.302;8.134;2023-02-15T05:53:59;19.40;;;9.80;;
5813;SDS011;2933;52.302;8.134;2023-02-15T05:59:00;19.47;;;9.97;;
5813;SDS011;2933;52.302;8.134;2023-02-15T06:04:02;22.50;;;9.60;;
5813;SDS011;2933;52.302;8.134;2023-02-15T06:09:05;18.17;;;9.53;;
5813;SDS011;2933;52.302;8.134;2023-02-15T06:14:07;17.00;;;8.80;;
5813;SDS011;2933;52.302;8.134;2023-02-15T06:19:08;21.90;;;9.50;;
5813;SDS011;2933;52.302;8.134;2023-02-15T06:24:11;20.37;;;9.77;;
5813;SDS011;2933;52.302;8.134;2023-02-15T06:29:13;24.50;;;10.23;;
5813;SDS011;2933;52.302;8.134;2023-02-15T06:34:15;23.10;;;9.67;;
5813;SDS011;2933;52.302;8.134;2023-02-15T06:39:18;20.27;;;10.47;;
5813;SDS011;2933;52.302;8.134;2023-02-15T06:44:20;28.20;;;11.73;;
5813;SDS011;2933;52.302;8.134;2023-02-15T06:49:21;21.90;;;10.20;;
5813;SDS011;2933;52.302;8.134;2023-02-15T06:54:24;22.33;;;10.07;;
5813;SDS011;2933;52.302;8.134;2023-02-15T06:59:26;22.00;;;10.93;;
5813;SDS011;2933;52.302;8.134;2023-02-15T07:04:27;25.83;;;10.70;;
5813;SDS011;2933;52.302;8.134;2023-02-15T07:09:31;17.90;;;10.00;;
5813;SDS011;2933;52.302;8.134;2023-02-15T07:14:32;24.20;;;11.10;;
5813;SDS011;2933;52.302;8.134;2023-02-15T07:19:36;20.33;;;10.63;;
5813;SDS011;2933;52.302;8.134;2023-02-15T07:24:38;25.43;;;11.53;;
5813;SDS011;2933;52.302;8.134;2023-02-15T07:29:40;28.00;;;11.70;;
5813;SDS011;2933;52.302;8.134;2023-02-15T07:34:42;21.80;;;11.27;;
5813;SDS011;2933;52.302;8.134;2023-02-15T07:39:44;28.63;;;11.53;;
5813;SDS011;2933;52.302;8.134;2023-02-15T07:44:46;23.70;;;10.40;;
5813;SDS011;2933;52.302;8.134;2023-02-15T07:49:48;22.70;;;9.27;;
5813;SDS011;2933;52.302;8.134;2023-02-15T07:54:52;25.93;;;11.60;;
5813;SDS011;2933;52.302;8.134;2023-02-15T07:59:53;26.57;;;11.50;;
5813;SDS011;2933;52.302;8.134;2023-02-15T08:04:55;23.70;;;12.30;;
5813;SDS011;2933;52.302;8.134;2023-02-15T08:09:58;24.70;;;11.77;;
5813;SDS011;2933;52.302;8.134;2023-02-15T08:15:00;27.70;;;12.80;;
5813;SDS011;2933;52.302;8.134;2023-02-15T08:20:01;28.63;;;11.93;;
5813;SDS011;2933;52.302;8.134;2023-02-15T08:25:05;26.93;;;11.50;;
5813;SDS011;2933;52.302;8.134;2023-02-15T08:30:09;26.00;;;11.27;;
5813;SDS011;2933;52.302;8.134;2023-02-15T08:35:11;20.97;;;10.40;;
5813;SDS011;2933;52.302;8.134;2023-02-15T08:40:18;19.53;;;10.33;;
5813;SDS011;2933;52.302;8.134;2023-02-15T08:45:20;21.40;;;10.53;;
5813;SDS011;2933;52.302;8.134;2023-02-15T08:50:22;20.43;;;10.07;;
5813;SDS011;2933;52.302;8.134;2023-02-15T08:55:25;22.93;;;10.63;;
5813;SDS011;2933;52.302;8.134;2023-02-15T09:00:31;19.87;;;10.07;;
5813;SDS011;2933;52.302;8.134;2023-02-15T09:05:38;26.17;;;11.27;;
5813;SDS011;2933;52.302;8.134;2023-02-15T09:10:44;20.63;;;9.60;;
5813;SDS011;2933;52.302;8.134;2023-02-15T09:15:46;17.37;;;9.87;;
5813;SDS011;2933;52.302;8.134;2023-02-15T09:20:51;25.40;;;11.67;;
5813;SDS011;2933;52.302;8.134;2023-02-15T09:25:54;19.40;;;9.40;;
5813;SDS011;2933;52.302;8.134;2023-02-15T09:30:56;21.60;;;11.47;;
5813;SDS011;2933;52.302;8.134;2023-02-15T09:35:57;16.90;;;10.33;;
5813;SDS011;2933;52.302;8.134;2023-02-15T09:41:04;19.17;;;10.60;;
5813;SDS011;2933;52.302;8.134;2023-02-15T09:46:23;22.07;;;11.47;;
5813;SDS011;2933;52.302;8.134;2023-02-15T09:51:42;24.70;;;11.47;;
5813;SDS011;2933;52.302;8.134;2023-02-15T09:57:02;20.60;;;10.20;;
5813;SDS011;2933;52.302;8.134;2023-02-15T10:02:16;18.07;;;9.50;;
5813;SDS011;2933;52.302;8.134;2023-02-15T10:07:31;21.87;;;11.10;;
5813;SDS011;2933;52.302;8.134;2023-02-15T10:12:47;20.23;;;10.00;;
5813;SDS011;2933;52.302;8.134;2023-02-15T10:18:04;24.80;;;11.90;;
5813;SDS011;2933;52.302;8.134;2023-02-15T10:23:28;19.67;;;10.17;;
5813;SDS011;2933;52.302;8.134;2023-02-15T10:28:47;21.80;;;10.50;;
5813;SDS011;2933;52.302;8.134;2023-02-15T10:34:01;21.17;;;11.67;;
5813;SDS011;2933;52.302;8.134;2023-02-15T10:39:19;24.53;;;11.13;;
5813;SDS011;2933;52.302;8.134;2023-02-15T10:50:13;20.07;;;11.60;;
5813;SDS011;2933;52.302;8.134;2023-02-15T10:55:36;24.03;;;11.70;;
5813;SDS011;2933;52.302;8.134;2023-02-15T11:00:59;23.03;;;11.93;;
5813;SDS011;2933;52.302;8.134;2023-02-15T11:06:16;22.37;;;11.60;;
5813;SDS011;2933;52.302;8.134;2023-02-15T11:11:50;21.87;;;10.60;;
5813;SDS011;2933;52.302;8.134;2023-02-15T11:17:12;20.00;;;10.80;;
5813;SDS011;2933;52.302;8.134;2023-02-15T11:22:17;23.40;;;13.27;;
5813;SDS011;2933;52.302;8.134;2023-02-15T11:27:20;21.47;;;11.07;;
5813;SDS011;2933;52.302;8.134;2023-02-15T11:32:30;19.37;;;11.00;;
5813;SDS011;2933;52.302;8.134;2023-02-15T11:37:37;24.43;;;11.43;;
5813;SDS011;2933;52.302;8.134;2023-02-15T11:42:43;20.90;;;11.40;;
5813;SDS011;2933;52.302;8.134;2023-02-15T11:47:47;21.53;;;11.67;;
5813;SDS011;2933;52.302;8.134;2023-02-15T11:52:49;24.93;;;12.40;;
5813;SDS011;2933;52.302;8.134;2023-02-15T11:57:53;23.30;;;12.63;;
5813;SDS011;2933;52.302;8.134;2023-02-15T12:03:00;23.83;;;13.23;;
5813;SDS011;2933;52.302;8.134;2023-02-15T12:08:11;22.70;;;11.53;;
5813;SDS011;2933;52.302;8.134;2023-02-15T12:13:17;23.13;;;12.10;;
5813;SDS011;2933;52.302;8.134;2023-02-15T12:18:27;28.43;;;13.73;;
5813;SDS011;2933;52.302;8.134;2023-02-15T12:23:40;27.07;;;14.00;;
5813;SDS011;2933;52.302;8.134;2023-02-15T12:28:58;27.27;;;13.83;;
5813;SDS011;2933;52.302;8.134;2023-02-15T12:34:08;33.50;;;14.20;;
5813;SDS011;2933;52.302;8.134;2023-02-15T12:39:17;28.97;;;14.67;;
5813;SDS011;2933;52.302;8.134;2023-02-15T12:44:22;39.37;;;15.17;;
5813;SDS011;2933;52.302;8.134;2023-02-15T12:49:29;28.90;;;14.60;;
5813;SDS011;2933;52.302;8.134;2023-02-15T12:54:35;26.47;;;13.60;;
5813;SDS011;2933;52.302;8.134;2023-02-15T12:59:52;25.23;;;13.47;;
5813;SDS011;2933;52.302;8.134;2023-02-15T13:05:10;29.03;;;13.97;;
5813;SDS011;2933;52.302;8.134;2023-02-15T13:10:23;33.53;;;14.97;;
5813;SDS011;2933;52.302;8.134;2023-02-15T13:15:30;35.13;;;14.80;;
5813;SDS011;2933;52.302;8.134;2023-02-15T13:20:37;36.77;;;15.87;;
5813;SDS011;2933;52.302;8.134;2023-02-15T13:25:43;35.47;;;16.47;;
5813;SDS011;2933;52.302;8.134;2023-02-15T13:30:50;36.37;;;15.87;;
5813;SDS011;2933;52.302;8.134;2023-02-15T13:35:57;30.73;;;15.50;;
5813;SDS011;2933;52.302;8.134;2023-02-15T13:41:09;35.13;;;15.20;;
5813;SDS011;2933;52.302;8.134;2023-02-15T13:46:18;37.03;;;15.20;;
5813;SDS011;2933;52.302;8.134;2023-02-15T13:51:36;31.80;;;15.70;;
5813;SDS011;2933;52.302;8.134;2023-02-15T13:56:47;36.80;;;15.93;;
5813;SDS011;2933;52.302;8.134;2023-02-15T14:01:57;37.17;;;16.03;;
5813;SDS011;2933;52.302;8.134;2023-02-15T14:12:38;33.30;;;15.33;;
5813;SDS011;2933;52.302;8.134;2023-02-15T14:17:54;33.50;;;14.40;;
5813;SDS011;2933;52.302;8.134;2023-02-15T14:23:07;44.30;;;16.70;;
5813;SDS011;2933;52.302;8.134;2023-02-15T14:28:16;41.03;;;15.63;;
5813;SDS011;2933;52.302;8.134;2023-02-15T14:33:28;37.57;;;15.43;;
5813;SDS011;2933;52.302;8.134;2023-02-15T14:38:42;33.90;;;14.30;;
5813;SDS011;2933;52.302;8.134;2023-02-15T14:44:00;31.30;;;13.87;;
5813;SDS011;2933;52.302;8.134;2023-02-15T14:49:16;40.23;;;14.37;;
5813;SDS011;2933;52.302;8.134;2023-02-15T14:59:59;35.03;;;13.13;;
5813;SDS011;2933;52.302;8.134;2023-02-15T15:05:07;29.10;;;12.60;;
5813;SDS011;2933;52.302;8.134;2023-02-15T15:15:44;31.90;;;13.20;;
5813;SDS011;2933;52.302;8.134;2023-02-15T15:20:47;33.43;;;12.87;;
5813;SDS011;2933;52.302;8.134;2023-02-15T15:25:51;34.17;;;13.70;;
5813;SDS011;2933;52.302;8.134;2023-02-15T15:30:56;29.80;;;12.50;;
5813;SDS011;2933;52.302;8.134;2023-02-15T15:36:09;33.13;;;12.57;;
5813;SDS011;2933;52.302;8.134;2023-02-15T15:41:28;25.90;;;12.30;;
5813;SDS011;2933;52.302;8.134;2023-02-15T15:46:47;34.03;;;13.70;;
5813;SDS011;2933;52.302;8.134;2023-02-15T15:51:59;29.83;;;12.70;;
5813;SDS011;2933;52.302;8.134;2023-02-15T15:57:04;25.60;;;12.30;;
5813;SDS011;2933;52.302;8.134;2023-02-15T16:02:07;31.30;;;13.30;;
5813;SDS011;2933;52.302;8.134;2023-02-15T16:07:25;27.37;;;12.73;;
5813;SDS011;2933;52.302;8.134;2023-02-15T16:12:29;37.47;;;14.77;;
5813;SDS011;2933;52.302;8.134;2023-02-15T16:17:33;34.80;;;13.00;;
5813;SDS011;2933;52.302;8.134;2023-02-15T16:22:35;42.90;;;15.33;;
5813;SDS011;2933;52.302;8.134;2023-02-15T16:27:38;37.30;;;14.80;;
5813;SDS011;2933;52.302;8.134;2023-02-15T16:32:42;35.30;;;15.30;;
5813;SDS011;2933;52.302;8.134;2023-02-15T16:37:43;37.43;;;15.10;;
5813;SDS011;2933;52.302;8.134;2023-02-15T16:42:47;39.17;;;17.50;;
5813;SDS011;2933;52.302;8.134;2023-02-15T16:47:49;40.27;;;15.63;;
5813;SDS011;2933;52.302;8.134;2023-02-15T16:52:53;41.20;;;16.03;;
5813;SDS011;2933;52.302;8.134;2023-02-15T16:57:57;33.50;;;16.23;;
5813;SDS011;2933;52.302;8.134;2023-02-15T17:03:03;34.37;;;15.27;;
5813;SDS011;2933;52.302;8.134;2023-02-15T17:08:12;33.40;;;14.07;;
5813;SDS011;2933;52.302;8.134;2023-02-15T17:13:17;30.43;;;13.80;;
5813;SDS011;2933;52.302;8.134;2023-02-15T17:18:19;33.17;;;14.10;;
5813;SDS011;2933;52.302;8.134;2023-02-15T17:23:28;38.77;;;14.70;;
5813;SDS011;2933;52.302;8.134;2023-02-15T17:28:39;30.20;;;14.30;;
5813;SDS011;2933;52.302;8.134;2023-02-15T17:34:09;30.33;;;13.10;;
5813;SDS011;2933;52.302;8.134;2023-02-15T17:39:43;28.33;;;13.63;;
5813;SDS011;2933;52.302;8.134;2023-02-15T17:44:46;28.13;;;13.10;;
5813;SDS011;2933;52.302;8.134;2023-02-15T17:49:47;32.23;;;12.60;;
5813;SDS011;2933;52.302;8.134;2023-02-15T17:54:50;34.83;;;12.90;;
5813;SDS011;2933;52.302;8.134;2023-02-15T18:00:12;37.27;;;15.10;;
5813;SDS011;2933;52.302;8.134;2023-02-15T18:05:32;29.70;;;13.93;;
5813;SDS011;2933;52.302;8.134;2023-02-15T18:10:51;32.40;;;14.27;;
5813;SDS011;2933;52.302;8.134;2023-02-15T18:16:13;27.60;;;12.50;;
5813;SDS011;2933;52.302;8.134;2023-02-15T18:21:15;33.83;;;14.00;;
5813;SDS011;2933;52.302;8.134;2023-02-15T18:26:18;34.97;;;14.73;;
5813;SDS011;2933;52.302;8.134;2023-02-15T18:31:22;38.77;;;15.30;;
5813;SDS011;2933;52.302;8.134;2023-02-15T18:36:25;29.97;;;13.40;;
5813;SDS011;2933;52.302;8.134;2023-02-15T18:41:28;33.63;;;13.77;;
5813;SDS011;2933;52.302;8.134;2023-02-15T18:46:31;31.17;;;13.60;;
5813;SDS011;2933;52.302;8.134;2023-02-15T18:51:33;35.13;;;14.13;;
5813;SDS011;2933;52.302;8.134;2023-02-15T18:56:39;32.07;;;14.10;;
5813;SDS011;2933;52.302;8.134;2023-02-15T19:01:41;29.73;;;13.27;;
5813;SDS011;2933;52.302;8.134;2023-02-15T19:06:44;35.40;;;14.13;;
5813;SDS011;2933;52.302;8.134;2023-02-15T19:11:48;35.37;;;15.60;;
5813;SDS011;2933;52.302;8.134;2023-02-15T19:16:53;32.10;;;14.33;;
5813;SDS011;2933;52.302;8.134;2023-02-15T19:21:55;37.70;;;15.30;;
5813;SDS011;2933;52.302;8.134;2023-02-15T19:26:57;35.77;;;15.60;;
5813;SDS011;2933;52.302;8.134;2023-02-15T19:31:59;39.43;;;14.87;;
5813;SDS011;2933;52.302;8.134;2023-02-15T19:37:01;32.50;;;15.43;;
5813;SDS011;2933;52.302;8.134;2023-02-15T19:42:08;34.13;;;15.20;;
5813;SDS011;2933;52.302;8.134;2023-02-15T19:47:15;29.73;;;14.00;;
5813;SDS011;2933;52.302;8.134;2023-02-15T19:52:19;37.60;;;14.60;;
5813;SDS011;2933;52.302;8.134;2023-02-15T19:57:23;40.93;;;15.13;;
5813;SDS011;2933;52.302;8.134;2023-02-15T20:02:25;31.83;;;15.50;;
5813;SDS011;2933;52.302;8.134;2023-02-15T20:07:27;33.03;;;15.20;;
5813;SDS011;2933;52.302;8.134;2023-02-15T20:12:29;42.90;;;15.60;;
5813;SDS011;2933;52.302;8.134;2023-02-15T20:17:31;33.37;;;14.90;;
5813;SDS011;2933;52.302;8.134;2023-02-15T20:22:33;32.23;;;14.10;;
5813;SDS011;2933;52.302;8.134;2023-02-15T20:27:34;33.57;;;15.20;;
5813;SDS011;2933;52.302;8.134;2023-02-15T20:32:42;29.63;;;13.37;;
5813;SDS011;2933;52.302;8.134;2023-02-15T20:37:47;41.17;;;15.13;;
5813;SDS011;2933;52.302;8.134;2023-02-15T20:43:07;26.80;;;12.93;;
5813;SDS011;2933;52.302;8.134;2023-02-15T20:48:26;36.87;;;13.50;;
5813;SDS011;2933;52.302;8.134;2023-02-15T20:53:28;32.90;;;13.60;;
5813;SDS011;2933;52.302;8.134;2023-02-15T20:58:30;32.60;;;13.13;;
5813;SDS011;2933;52.302;8.134;2023-02-15T21:03:33;28.80;;;11.90;;
5813;SDS011;2933;52.302;8.134;2023-02-15T21:08:34;25.70;;;12.17;;
5813;SDS011;2933;52.302;8.134;2023-02-15T21:13:36;23.87;;;12.47;;
5813;SDS011;2933;52.302;8.134;2023-02-15T21:18:39;23.77;;;12.60;;
5813;SDS011;2933;52.302;8.134;2023-02-15T21:23:41;23.77;;;11.97;;
5813;SDS011;2933;52.302;8.134;2023-02-15T21:28:44;25.67;;;11.47;;
5813;SDS011;2933;52.302;8.134;2023-02-15T21:33:47;28.43;;;13.63;;
5813;SDS011;2933;52.302;8.134;2023-02-15T21:38:49;31.73;;;12.23;;
5813;SDS011;2933;52.302;8.134;2023-02-15T21:43:52;23.27;;;11.13;;
5813;SDS011;2933;52.302;8.134;2023-02-15T21:49:13;26.97;;;12.80;;
5813;SDS011;2933;52.302;8.134;2023-02-15T21:54:15;25.40;;;11.93;;
5813;SDS011;2933;52.302;8.134;2023-02-15T21:59:18;34.13;;;13.80;;
5813;SDS011;2933;52.302;8.134;2023-02-15T22:04:22;26.97;;;12.10;;
5813;SDS011;2933;52.302;8.134;2023-02-15T22:09:26;22.73;;;11.60;;
5813;SDS011;2933;52.302;8.134;2023-02-15T22:14:37;26.03;;;12.03;;
5813;SDS011;2933;52.302;8.134;2023-02-15T22:19:42;26.30;;;13.27;;
5813;SDS011;2933;52.302;8.134;2023-02-15T22:24:49;24.57;;;12.20;;
5813;SDS011;2933;52.302;8.134;2023-02-15T22:30:05;30.97;;;12.90;;
5813;SDS011;2933;52.302;8.134;2023-02-15T22:35:24;27.67;;;12.90;;
5813;SDS011;2933;52.302;8.134;2023-02-15T22:40:47;32.70;;;14.07;;
5813;SDS011;2933;52.302;8.134;2023-02-15T22:46:04;27.40;;;12.90;;
5813;SDS011;2933;52.302;8.134;2023-02-15T22:51:32;30.93;;;13.50;;
5813;SDS011;2933;52.302;8.134;2023-02-15T22:56:57;27.27;;;12.87;;
5813;SDS011;2933;52.302;8.134;2023-02-15T23:02:12;26.13;;;12.13;;
5813;SDS011;2933;52.302;8.134;2023-02-15T23:07:28;30.23;;;11.73;;
5813;SDS011;2933;52.302;8.134;2023-02-15T23:12:30;27.27;;;12.77;;
5813;SDS011;2933;52.302;8.134;2023-02-15T23:18:08;25.80;;;11.20;;
5813;SDS011;2933;52.302;8.134;2023-02-15T23:23:38;28.57;;;12.10;;
5813;SDS011;2933;52.302;8.134;2023-02-15T23:28:51;29.80;;;11.90;;
5813;SDS011;2933;52.302;8.134;2023-02-15T23:34:13;28.13;;;12.30;;
5813;SDS011;2933;52.302;8.134;2023-02-15T23:39:32;26.70;;;12.70;;
5813;SDS011;2933;52.302;8.134;2023-02-15T23:44:54;26.87;;;12.07;;
5813;SDS011;2933;52.302;8.134;2023-02-15T23:50:04;33.90;;;11.87;;
5813;SDS011;2933;52.302;8.134;2023-02-15T23:55:39;27.37;;;12.67;;
